Algernon, Nebraska
Current Conditions -  °F | °C
As of 5:53 PM on Monday 24 Nov 2014 (Local Time) from KBBW Reporting Station
Clear Clear  
Wind Chill: 21°   Ceiling: Unl
Heat Index: 30°   Visibility: 10mi
Dew Point: 16°   Wind: 10mph
Humidity: 56%   Direction: 340°NNW
Pressure: 29.99"   Gusts: NA
Location:  41.1632°N, 99.3112°W
Report Text: KBBW 242353Z AUTO 34009KT 10SM CLR M01/M09 A2999 RMK AO2 SLP179 T10111089 10050 21017 51030
Loading
Personal Weather Stations






























Interactive Weather Map New forecast layout! Learn more

10-Day Weather Forecast

Advertisements
Track Severe Weather on mobile